Hovedside
METAR-TAF:

METAR-TAF

Lufthavner :

Björneborg lufthavn

Björneborg, Finland

breddegrad: 61-28N, lengdegrad: 021-48E, høyde over havet: 13 m

Gjeldene værobservasjon

Denne rapporten ble laget for 5 minutter siden, klokken 19:50 UTC
Vind 8 kt fra Sør-sørøst, skiftende mellom Sørøst og Sør
Temperatur 18°C
Luftfuktighet 73%
Trykk 1015 hPa
Sikt 10 km eller mer
ingen skyer under 1500 m og ingen bygeskyer

METAR: EFPO 161950Z AUTO 16008KT 130V190 CAVOK 18/13 Q1015

Tid: 22:55 (19:55 UTC)

Varsel

Denne rapporten ble laget for 5 timer og 26 minutter siden, klokken 14:29 UTC
Varsel gyldig fra 16. klokken 15 UTC til 16. klokken 21 UTC
Vind 10 kt fra Sør-sørvest
Sikt 10 km eller mer
Spredte skyer i en høyde av 4000 ft

TAF: EFPO 161429Z 1615/1621 20010KT 9999 SCT040

Værobservasjoner og værvarsel for over 4000 flyplasser (METAR- og TAF-rapporter).

Tilgjengelige stasjoner er representert av de røde og gule prikkene på kartet.

Hold musepekeren over prikken for å se navnet på stasjonen.

Klikk så for å se værobservasjoner og -varsler.

For å forandre kartet kan du klikke på den grønne knappen med svart kryss for å zoome inn, på den grønne knappen med strek for å zoome ut, eller på de grønne pilene for å se tilstøtende kart.


METAR-TAF: